sensor_id;sensor_type;location;lat;lon;timestamp;P1;durP1;ratioP1;P2;durP2;ratioP2
21611;SDS011;47005;52.292;13.452;2023-04-19T00:01:28;6.37;;;4.10;;
21611;SDS011;47005;52.292;13.452;2023-04-19T00:03:54;8.40;;;3.67;;
21611;SDS011;47005;52.292;13.452;2023-04-19T00:06:22;5.93;;;3.67;;
21611;SDS011;47005;52.292;13.452;2023-04-19T00:08:50;8.30;;;4.63;;
21611;SDS011;47005;52.292;13.452;2023-04-19T00:11:24;9.57;;;4.33;;
21611;SDS011;47005;52.292;13.452;2023-04-19T00:13:50;10.77;;;4.60;;
21611;SDS011;47005;52.292;13.452;2023-04-19T00:16:16;7.40;;;4.13;;
21611;SDS011;47005;52.292;13.452;2023-04-19T00:18:41;6.50;;;3.90;;
21611;SDS011;47005;52.292;13.452;2023-04-19T00:21:07;6.87;;;4.17;;
21611;SDS011;47005;52.292;13.452;2023-04-19T00:23:33;6.57;;;3.93;;
21611;SDS011;47005;52.292;13.452;2023-04-19T00:26:01;7.57;;;4.10;;
21611;SDS011;47005;52.292;13.452;2023-04-19T00:28:28;8.17;;;4.33;;
21611;SDS011;47005;52.292;13.452;2023-04-19T00:30:57;6.80;;;3.73;;
21611;SDS011;47005;52.292;13.452;2023-04-19T00:33:23;8.17;;;3.27;;
21611;SDS011;47005;52.292;13.452;2023-04-19T00:35:48;6.87;;;4.07;;
21611;SDS011;47005;52.292;13.452;2023-04-19T00:38:14;5.40;;;3.50;;
21611;SDS011;47005;52.292;13.452;2023-04-19T00:40:39;7.97;;;4.60;;
21611;SDS011;47005;52.292;13.452;2023-04-19T00:43:05;8.50;;;3.60;;
21611;SDS011;47005;52.292;13.452;2023-04-19T00:45:31;10.63;;;3.80;;
21611;SDS011;47005;52.292;13.452;2023-04-19T00:48:00;8.43;;;3.80;;
21611;SDS011;47005;52.292;13.452;2023-04-19T00:50:26;5.77;;;2.93;;
21611;SDS011;47005;52.292;13.452;2023-04-19T00:52:52;8.03;;;3.80;;
21611;SDS011;47005;52.292;13.452;2023-04-19T00:55:19;6.57;;;3.40;;
21611;SDS011;47005;52.292;13.452;2023-04-19T00:57:46;5.57;;;2.50;;
21611;SDS011;47005;52.292;13.452;2023-04-19T01:00:12;7.90;;;3.20;;
21611;SDS011;47005;52.292;13.452;2023-04-19T01:02:39;5.87;;;2.73;;
21611;SDS011;47005;52.292;13.452;2023-04-19T01:05:05;5.87;;;2.33;;
21611;SDS011;47005;52.292;13.452;2023-04-19T01:07:32;4.50;;;2.17;;
21611;SDS011;47005;52.292;13.452;2023-04-19T01:09:57;8.43;;;2.40;;
21611;SDS011;47005;52.292;13.452;2023-04-19T01:12:23;5.97;;;2.80;;
21611;SDS011;47005;52.292;13.452;2023-04-19T01:14:49;8.23;;;3.00;;
21611;SDS011;47005;52.292;13.452;2023-04-19T01:17:15;7.10;;;2.70;;
21611;SDS011;47005;52.292;13.452;2023-04-19T01:19:42;5.87;;;2.63;;
21611;SDS011;47005;52.292;13.452;2023-04-19T01:22:08;6.90;;;3.10;;
21611;SDS011;47005;52.292;13.452;2023-04-19T01:24:34;4.70;;;2.70;;
21611;SDS011;47005;52.292;13.452;2023-04-19T01:26:59;6.77;;;2.50;;
21611;SDS011;47005;52.292;13.452;2023-04-19T01:29:26;6.87;;;3.10;;
21611;SDS011;47005;52.292;13.452;2023-04-19T01:31:52;3.70;;;2.27;;
21611;SDS011;47005;52.292;13.452;2023-04-19T01:34:20;5.10;;;3.33;;
21611;SDS011;47005;52.292;13.452;2023-04-19T01:36:49;4.63;;;2.40;;
21611;SDS011;47005;52.292;13.452;2023-04-19T01:39:15;4.60;;;2.40;;
21611;SDS011;47005;52.292;13.452;2023-04-19T01:41:41;8.93;;;3.03;;
21611;SDS011;47005;52.292;13.452;2023-04-19T01:44:06;3.80;;;1.97;;
21611;SDS011;47005;52.292;13.452;2023-04-19T01:46:32;2.70;;;2.00;;
21611;SDS011;47005;52.292;13.452;2023-04-19T01:48:57;6.00;;;2.53;;
21611;SDS011;47005;52.292;13.452;2023-04-19T01:51:23;7.07;;;2.13;;
21611;SDS011;47005;52.292;13.452;2023-04-19T01:53:49;3.17;;;2.10;;
21611;SDS011;47005;52.292;13.452;2023-04-19T01:56:17;4.27;;;2.40;;
21611;SDS011;47005;52.292;13.452;2023-04-19T01:58:43;5.40;;;2.30;;
21611;SDS011;47005;52.292;13.452;2023-04-19T02:01:09;4.47;;;2.23;;
21611;SDS011;47005;52.292;13.452;2023-04-19T02:03:36;3.23;;;2.40;;
21611;SDS011;47005;52.292;13.452;2023-04-19T02:06:09;4.70;;;2.57;;
21611;SDS011;47005;52.292;13.452;2023-04-19T02:08:36;4.10;;;2.40;;
21611;SDS011;47005;52.292;13.452;2023-04-19T02:11:05;4.87;;;2.27;;
21611;SDS011;47005;52.292;13.452;2023-04-19T02:13:35;3.53;;;2.20;;
21611;SDS011;47005;52.292;13.452;2023-04-19T02:16:01;6.40;;;2.93;;
21611;SDS011;47005;52.292;13.452;2023-04-19T02:18:27;4.13;;;2.43;;
21611;SDS011;47005;52.292;13.452;2023-04-19T02:20:54;5.00;;;2.27;;
21611;SDS011;47005;52.292;13.452;2023-04-19T02:23:20;6.30;;;2.87;;
21611;SDS011;47005;52.292;13.452;2023-04-19T02:25:45;7.17;;;2.50;;
21611;SDS011;47005;52.292;13.452;2023-04-19T02:28:11;3.57;;;2.20;;
21611;SDS011;47005;52.292;13.452;2023-04-19T02:30:36;4.37;;;2.70;;
21611;SDS011;47005;52.292;13.452;2023-04-19T02:33:02;4.93;;;2.73;;
21611;SDS011;47005;52.292;13.452;2023-04-19T02:35:28;4.93;;;2.77;;
21611;SDS011;47005;52.292;13.452;2023-04-19T02:37:53;3.97;;;2.37;;
21611;SDS011;47005;52.292;13.452;2023-04-19T02:40:19;4.30;;;2.47;;
21611;SDS011;47005;52.292;13.452;2023-04-19T02:42:47;4.77;;;2.63;;
21611;SDS011;47005;52.292;13.452;2023-04-19T02:45:12;5.27;;;3.10;;
21611;SDS011;47005;52.292;13.452;2023-04-19T02:47:38;5.23;;;2.70;;
21611;SDS011;47005;52.292;13.452;2023-04-19T02:50:04;8.80;;;3.23;;
21611;SDS011;47005;52.292;13.452;2023-04-19T02:52:31;8.13;;;2.40;;
21611;SDS011;47005;52.292;13.452;2023-04-19T02:54:56;9.93;;;3.03;;
21611;SDS011;47005;52.292;13.452;2023-04-19T02:57:22;5.33;;;2.40;;
21611;SDS011;47005;52.292;13.452;2023-04-19T02:59:47;7.73;;;2.40;;
21611;SDS011;47005;52.292;13.452;2023-04-19T03:02:13;11.27;;;3.30;;
21611;SDS011;47005;52.292;13.452;2023-04-19T03:04:39;4.77;;;2.43;;
21611;SDS011;47005;52.292;13.452;2023-04-19T03:07:05;6.87;;;2.83;;
21611;SDS011;47005;52.292;13.452;2023-04-19T03:09:31;3.77;;;2.03;;
21611;SDS011;47005;52.292;13.452;2023-04-19T03:11:56;5.40;;;2.17;;
21611;SDS011;47005;52.292;13.452;2023-04-19T03:14:22;6.10;;;2.77;;
21611;SDS011;47005;52.292;13.452;2023-04-19T03:16:48;8.50;;;3.10;;
21611;SDS011;47005;52.292;13.452;2023-04-19T03:19:13;4.10;;;2.37;;
21611;SDS011;47005;52.292;13.452;2023-04-19T03:21:39;4.83;;;2.47;;
21611;SDS011;47005;52.292;13.452;2023-04-19T03:24:05;6.23;;;2.77;;
21611;SDS011;47005;52.292;13.452;2023-04-19T03:26:31;7.10;;;2.60;;
21611;SDS011;47005;52.292;13.452;2023-04-19T03:28:56;6.00;;;2.77;;
21611;SDS011;47005;52.292;13.452;2023-04-19T03:31:22;3.60;;;1.83;;
21611;SDS011;47005;52.292;13.452;2023-04-19T03:33:48;6.30;;;2.60;;
21611;SDS011;47005;52.292;13.452;2023-04-19T03:36:16;5.20;;;2.33;;
21611;SDS011;47005;52.292;13.452;2023-04-19T03:38:41;4.03;;;2.57;;
21611;SDS011;47005;52.292;13.452;2023-04-19T03:41:22;3.83;;;2.30;;
21611;SDS011;47005;52.292;13.452;2023-04-19T03:43:49;6.07;;;2.83;;
21611;SDS011;47005;52.292;13.452;2023-04-19T03:46:15;3.47;;;2.13;;
21611;SDS011;47005;52.292;13.452;2023-04-19T03:48:43;5.47;;;2.40;;
21611;SDS011;47005;52.292;13.452;2023-04-19T03:51:11;3.83;;;2.23;;
21611;SDS011;47005;52.292;13.452;2023-04-19T03:53:37;3.93;;;2.70;;
21611;SDS011;47005;52.292;13.452;2023-04-19T03:56:03;9.17;;;2.50;;
21611;SDS011;47005;52.292;13.452;2023-04-19T03:58:29;4.57;;;2.37;;
21611;SDS011;47005;52.292;13.452;2023-04-19T04:00:55;4.33;;;2.13;;
21611;SDS011;47005;52.292;13.452;2023-04-19T04:03:20;3.53;;;1.60;;
21611;SDS011;47005;52.292;13.452;2023-04-19T04:05:46;10.40;;;3.30;;
21611;SDS011;47005;52.292;13.452;2023-04-19T04:08:12;3.07;;;2.07;;
21611;SDS011;47005;52.292;13.452;2023-04-19T04:10:38;7.37;;;2.83;;
21611;SDS011;47005;52.292;13.452;2023-04-19T04:13:03;5.57;;;2.70;;
21611;SDS011;47005;52.292;13.452;2023-04-19T04:15:29;3.90;;;2.10;;
21611;SDS011;47005;52.292;13.452;2023-04-19T04:17:55;4.73;;;2.43;;
21611;SDS011;47005;52.292;13.452;2023-04-19T04:20:20;5.57;;;2.43;;
21611;SDS011;47005;52.292;13.452;2023-04-19T04:22:46;6.43;;;2.93;;
21611;SDS011;47005;52.292;13.452;2023-04-19T04:25:12;6.00;;;2.60;;
21611;SDS011;47005;52.292;13.452;2023-04-19T04:27:40;4.03;;;2.20;;
21611;SDS011;47005;52.292;13.452;2023-04-19T04:30:09;5.30;;;2.27;;
21611;SDS011;47005;52.292;13.452;2023-04-19T04:32:35;6.53;;;2.37;;
21611;SDS011;47005;52.292;13.452;2023-04-19T04:35:02;3.63;;;2.03;;
21611;SDS011;47005;52.292;13.452;2023-04-19T04:37:32;4.17;;;2.50;;
21611;SDS011;47005;52.292;13.452;2023-04-19T04:39:59;6.13;;;2.40;;
21611;SDS011;47005;52.292;13.452;2023-04-19T04:42:25;5.17;;;2.00;;
21611;SDS011;47005;52.292;13.452;2023-04-19T04:44:55;5.40;;;2.63;;
21611;SDS011;47005;52.292;13.452;2023-04-19T04:47:22;9.97;;;2.90;;
21611;SDS011;47005;52.292;13.452;2023-04-19T04:49:47;7.00;;;2.67;;
21611;SDS011;47005;52.292;13.452;2023-04-19T04:52:13;3.57;;;2.23;;
21611;SDS011;47005;52.292;13.452;2023-04-19T04:54:39;7.23;;;3.70;;
21611;SDS011;47005;52.292;13.452;2023-04-19T04:57:05;5.33;;;2.83;;
21611;SDS011;47005;52.292;13.452;2023-04-19T04:59:32;5.93;;;2.60;;
21611;SDS011;47005;52.292;13.452;2023-04-19T05:01:58;5.03;;;2.63;;
21611;SDS011;47005;52.292;13.452;2023-04-19T05:04:23;6.37;;;2.70;;
21611;SDS011;47005;52.292;13.452;2023-04-19T05:06:49;3.30;;;2.03;;
21611;SDS011;47005;52.292;13.452;2023-04-19T05:09:15;4.43;;;2.10;;
21611;SDS011;47005;52.292;13.452;2023-04-19T05:11:41;3.77;;;2.10;;
21611;SDS011;47005;52.292;13.452;2023-04-19T05:14:07;3.47;;;2.07;;
21611;SDS011;47005;52.292;13.452;2023-04-19T05:16:32;3.93;;;2.23;;
21611;SDS011;47005;52.292;13.452;2023-04-19T05:18:58;6.27;;;2.87;;
21611;SDS011;47005;52.292;13.452;2023-04-19T05:21:23;7.40;;;2.23;;
21611;SDS011;47005;52.292;13.452;2023-04-19T05:23:50;4.50;;;2.40;;
21611;SDS011;47005;52.292;13.452;2023-04-19T05:26:17;4.37;;;2.73;;
21611;SDS011;47005;52.292;13.452;2023-04-19T05:28:43;5.33;;;1.87;;
21611;SDS011;47005;52.292;13.452;2023-04-19T05:31:10;4.33;;;2.20;;
21611;SDS011;47005;52.292;13.452;2023-04-19T05:33:36;4.50;;;2.07;;
21611;SDS011;47005;52.292;13.452;2023-04-19T05:36:02;9.30;;;1.93;;
21611;SDS011;47005;52.292;13.452;2023-04-19T05:38:27;4.47;;;2.07;;
21611;SDS011;47005;52.292;13.452;2023-04-19T05:40:53;3.17;;;1.77;;
21611;SDS011;47005;52.292;13.452;2023-04-19T05:43:19;5.43;;;2.13;;
21611;SDS011;47005;52.292;13.452;2023-04-19T05:45:46;3.70;;;2.13;;
21611;SDS011;47005;52.292;13.452;2023-04-19T05:48:11;3.93;;;2.20;;
21611;SDS011;47005;52.292;13.452;2023-04-19T05:50:38;3.13;;;1.70;;
21611;SDS011;47005;52.292;13.452;2023-04-19T05:53:03;5.57;;;2.13;;
21611;SDS011;47005;52.292;13.452;2023-04-19T05:55:29;4.73;;;2.00;;
21611;SDS011;47005;52.292;13.452;2023-04-19T05:57:55;4.13;;;2.00;;
21611;SDS011;47005;52.292;13.452;2023-04-19T06:00:22;6.37;;;1.73;;
21611;SDS011;47005;52.292;13.452;2023-04-19T06:02:48;4.40;;;1.73;;
21611;SDS011;47005;52.292;13.452;2023-04-19T06:05:13;2.10;;;1.33;;
21611;SDS011;47005;52.292;13.452;2023-04-19T06:07:39;5.80;;;2.30;;
21611;SDS011;47005;52.292;13.452;2023-04-19T06:10:05;5.60;;;2.23;;
21611;SDS011;47005;52.292;13.452;2023-04-19T06:12:31;5.90;;;2.00;;
21611;SDS011;47005;52.292;13.452;2023-04-19T06:14:57;3.77;;;1.90;;
21611;SDS011;47005;52.292;13.452;2023-04-19T06:17:22;3.37;;;1.80;;
21611;SDS011;47005;52.292;13.452;2023-04-19T06:19:52;5.00;;;2.20;;
21611;SDS011;47005;52.292;13.452;2023-04-19T06:22:19;10.17;;;2.13;;
21611;SDS011;47005;52.292;13.452;2023-04-19T06:24:45;5.87;;;1.57;;
21611;SDS011;47005;52.292;13.452;2023-04-19T06:27:11;4.77;;;1.90;;
21611;SDS011;47005;52.292;13.452;2023-04-19T06:29:37;3.20;;;1.80;;
21611;SDS011;47005;52.292;13.452;2023-04-19T06:32:03;2.43;;;1.40;;
21611;SDS011;47005;52.292;13.452;2023-04-19T06:34:36;3.60;;;2.03;;
21611;SDS011;47005;52.292;13.452;2023-04-19T06:37:01;3.40;;;1.67;;
21611;SDS011;47005;52.292;13.452;2023-04-19T06:39:27;4.23;;;1.57;;
21611;SDS011;47005;52.292;13.452;2023-04-19T06:41:53;2.13;;;1.23;;
21611;SDS011;47005;52.292;13.452;2023-04-19T06:44:18;5.77;;;2.00;;
21611;SDS011;47005;52.292;13.452;2023-04-19T06:46:44;4.27;;;1.33;;
21611;SDS011;47005;52.292;13.452;2023-04-19T06:49:10;2.00;;;1.20;;
21611;SDS011;47005;52.292;13.452;2023-04-19T06:51:36;3.07;;;1.83;;
21611;SDS011;47005;52.292;13.452;2023-04-19T06:54:03;3.77;;;2.00;;
21611;SDS011;47005;52.292;13.452;2023-04-19T06:56:41;6.73;;;2.07;;
21611;SDS011;47005;52.292;13.452;2023-04-19T06:59:18;3.30;;;1.77;;
21611;SDS011;47005;52.292;13.452;2023-04-19T07:01:45;5.67;;;2.63;;
21611;SDS011;47005;52.292;13.452;2023-04-19T07:04:11;7.00;;;1.63;;
21611;SDS011;47005;52.292;13.452;2023-04-19T07:06:37;9.17;;;3.17;;
21611;SDS011;47005;52.292;13.452;2023-04-19T07:09:04;6.43;;;2.30;;
21611;SDS011;47005;52.292;13.452;2023-04-19T07:11:30;4.83;;;1.77;;
21611;SDS011;47005;52.292;13.452;2023-04-19T07:13:57;2.60;;;1.47;;
21611;SDS011;47005;52.292;13.452;2023-04-19T07:16:24;2.67;;;1.33;;
21611;SDS011;47005;52.292;13.452;2023-04-19T07:18:53;5.37;;;1.73;;
21611;SDS011;47005;52.292;13.452;2023-04-19T07:21:19;5.07;;;1.67;;
21611;SDS011;47005;52.292;13.452;2023-04-19T07:23:45;4.27;;;1.70;;
21611;SDS011;47005;52.292;13.452;2023-04-19T07:26:10;4.80;;;1.90;;
21611;SDS011;47005;52.292;13.452;2023-04-19T07:28:38;3.87;;;1.63;;
21611;SDS011;47005;52.292;13.452;2023-04-19T07:31:04;4.57;;;1.80;;
21611;SDS011;47005;52.292;13.452;2023-04-19T07:33:30;4.73;;;2.37;;
21611;SDS011;47005;52.292;13.452;2023-04-19T07:35:56;5.47;;;2.10;;
21611;SDS011;47005;52.292;13.452;2023-04-19T07:38:22;2.93;;;1.50;;
21611;SDS011;47005;52.292;13.452;2023-04-19T07:40:49;4.33;;;1.87;;
21611;SDS011;47005;52.292;13.452;2023-04-19T07:43:15;9.33;;;1.50;;
21611;SDS011;47005;52.292;13.452;2023-04-19T07:45:41;5.17;;;1.80;;
21611;SDS011;47005;52.292;13.452;2023-04-19T07:48:07;2.47;;;1.27;;
21611;SDS011;47005;52.292;13.452;2023-04-19T07:50:32;4.13;;;2.03;;
21611;SDS011;47005;52.292;13.452;2023-04-19T07:52:58;7.33;;;2.27;;
21611;SDS011;47005;52.292;13.452;2023-04-19T07:55:23;6.73;;;1.80;;
21611;SDS011;47005;52.292;13.452;2023-04-19T07:57:49;7.27;;;1.87;;
21611;SDS011;47005;52.292;13.452;2023-04-19T08:00:15;6.43;;;1.67;;
21611;SDS011;47005;52.292;13.452;2023-04-19T08:02:45;9.07;;;1.67;;
21611;SDS011;47005;52.292;13.452;2023-04-19T08:05:12;2.03;;;1.23;;
21611;SDS011;47005;52.292;13.452;2023-04-19T08:07:40;5.90;;;2.10;;
21611;SDS011;47005;52.292;13.452;2023-04-19T08:10:06;7.50;;;2.20;;
21611;SDS011;47005;52.292;13.452;2023-04-19T08:12:32;8.77;;;2.43;;
21611;SDS011;47005;52.292;13.452;2023-04-19T08:14:58;9.00;;;4.00;;
21611;SDS011;47005;52.292;13.452;2023-04-19T08:17:25;10.27;;;2.83;;
21611;SDS011;47005;52.292;13.452;2023-04-19T08:19:51;6.60;;;2.40;;
21611;SDS011;47005;52.292;13.452;2023-04-19T08:22:18;10.13;;;2.33;;
21611;SDS011;47005;52.292;13.452;2023-04-19T08:24:45;9.53;;;3.37;;
21611;SDS011;47005;52.292;13.452;2023-04-19T08:27:13;5.10;;;2.50;;
21611;SDS011;47005;52.292;13.452;2023-04-19T08:29:38;4.87;;;2.60;;
21611;SDS011;47005;52.292;13.452;2023-04-19T08:32:04;4.80;;;2.80;;
21611;SDS011;47005;52.292;13.452;2023-04-19T08:34:33;5.83;;;2.67;;
21611;SDS011;47005;52.292;13.452;2023-04-19T08:37:00;2.20;;;1.27;;
21611;SDS011;47005;52.292;13.452;2023-04-19T08:39:27;4.00;;;2.10;;
21611;SDS011;47005;52.292;13.452;2023-04-19T08:41:53;5.60;;;1.87;;
21611;SDS011;47005;52.292;13.452;2023-04-19T08:44:22;5.10;;;2.13;;
21611;SDS011;47005;52.292;13.452;2023-04-19T08:46:50;6.47;;;2.70;;
21611;SDS011;47005;52.292;13.452;2023-04-19T08:49:16;6.83;;;2.47;;
21611;SDS011;47005;52.292;13.452;2023-04-19T08:51:46;5.90;;;2.93;;
21611;SDS011;47005;52.292;13.452;2023-04-19T08:54:14;6.87;;;2.23;;
21611;SDS011;47005;52.292;13.452;2023-04-19T08:56:42;5.53;;;2.60;;
21611;SDS011;47005;52.292;13.452;2023-04-19T08:59:08;7.97;;;2.60;;
21611;SDS011;47005;52.292;13.452;2023-04-19T09:01:33;7.60;;;2.70;;
21611;SDS011;47005;52.292;13.452;2023-04-19T09:03:59;8.07;;;2.10;;
21611;SDS011;47005;52.292;13.452;2023-04-19T09:06:25;6.80;;;3.27;;
21611;SDS011;47005;52.292;13.452;2023-04-19T09:08:51;4.97;;;2.97;;
21611;SDS011;47005;52.292;13.452;2023-04-19T09:11:26;6.57;;;2.50;;
21611;SDS011;47005;52.292;13.452;2023-04-19T09:14:09;11.13;;;2.63;;
21611;SDS011;47005;52.292;13.452;2023-04-19T09:16:36;11.43;;;3.10;;
21611;SDS011;47005;52.292;13.452;2023-04-19T09:19:02;6.53;;;3.00;;
21611;SDS011;47005;52.292;13.452;2023-04-19T09:21:28;5.20;;;2.70;;
21611;SDS011;47005;52.292;13.452;2023-04-19T09:23:55;6.13;;;3.00;;
21611;SDS011;47005;52.292;13.452;2023-04-19T09:26:22;5.07;;;3.17;;
21611;SDS011;47005;52.292;13.452;2023-04-19T09:29:06;6.57;;;2.93;;
21611;SDS011;47005;52.292;13.452;2023-04-19T09:31:36;8.30;;;3.27;;
21611;SDS011;47005;52.292;13.452;2023-04-19T09:34:12;5.47;;;3.10;;
21611;SDS011;47005;52.292;13.452;2023-04-19T09:36:39;10.10;;;3.20;;
21611;SDS011;47005;52.292;13.452;2023-04-19T09:39:05;6.50;;;3.30;;
21611;SDS011;47005;52.292;13.452;2023-04-19T09:41:31;7.80;;;2.73;;
21611;SDS011;47005;52.292;13.452;2023-04-19T09:44:11;5.57;;;2.67;;
21611;SDS011;47005;52.292;13.452;2023-04-19T09:46:39;8.37;;;2.50;;
21611;SDS011;47005;52.292;13.452;2023-04-19T09:51:39;5.40;;;3.00;;
21611;SDS011;47005;52.292;13.452;2023-04-19T09:54:05;4.90;;;2.30;;
21611;SDS011;47005;52.292;13.452;2023-04-19T09:56:32;12.90;;;2.87;;
21611;SDS011;47005;52.292;13.452;2023-04-19T09:59:01;5.03;;;2.50;;
21611;SDS011;47005;52.292;13.452;2023-04-19T10:01:27;9.57;;;2.67;;
21611;SDS011;47005;52.292;13.452;2023-04-19T10:03:58;4.47;;;2.40;;
21611;SDS011;47005;52.292;13.452;2023-04-19T10:06:24;5.90;;;3.03;;
21611;SDS011;47005;52.292;13.452;2023-04-19T10:08:52;8.03;;;2.83;;
21611;SDS011;47005;52.292;13.452;2023-04-19T10:11:20;6.50;;;2.60;;
21611;SDS011;47005;52.292;13.452;2023-04-19T10:13:46;6.30;;;2.93;;
21611;SDS011;47005;52.292;13.452;2023-04-19T10:16:14;6.83;;;2.97;;
21611;SDS011;47005;52.292;13.452;2023-04-19T10:18:40;5.97;;;2.90;;
21611;SDS011;47005;52.292;13.452;2023-04-19T10:21:06;3.33;;;2.13;;
21611;SDS011;47005;52.292;13.452;2023-04-19T10:23:34;4.70;;;2.43;;
21611;SDS011;47005;52.292;13.452;2023-04-19T10:26:01;10.40;;;2.33;;
21611;SDS011;47005;52.292;13.452;2023-04-19T10:28:27;5.60;;;2.53;;
21611;SDS011;47005;52.292;13.452;2023-04-19T10:31:01;12.53;;;2.97;;
21611;SDS011;47005;52.292;13.452;2023-04-19T10:33:29;5.07;;;2.33;;
21611;SDS011;47005;52.292;13.452;2023-04-19T10:35:56;2.97;;;1.70;;
21611;SDS011;47005;52.292;13.452;2023-04-19T10:41:02;6.17;;;2.20;;
21611;SDS011;47005;52.292;13.452;2023-04-19T10:43:29;3.50;;;2.83;;
21611;SDS011;47005;52.292;13.452;2023-04-19T10:45:58;7.27;;;2.70;;
21611;SDS011;47005;52.292;13.452;2023-04-19T10:53:48;9.10;;;3.07;;
21611;SDS011;47005;52.292;13.452;2023-04-19T11:09:38;4.82;;;2.45;;
21611;SDS011;47005;52.292;13.452;2023-04-19T11:12:15;4.20;;;2.50;;
21611;SDS011;47005;52.292;13.452;2023-04-19T11:14:43;4.10;;;2.28;;
21611;SDS011;47005;52.292;13.452;2023-04-19T11:19:44;4.70;;;2.50;;
21611;SDS011;47005;52.292;13.452;2023-04-19T11:22:32;6.32;;;2.83;;
21611;SDS011;47005;52.292;13.452;2023-04-19T11:25:18;7.70;;;2.90;;
21611;SDS011;47005;52.292;13.452;2023-04-19T11:27:46;4.55;;;2.40;;
21611;SDS011;47005;52.292;13.452;2023-04-19T11:30:14;6.57;;;3.25;;
21611;SDS011;47005;52.292;13.452;2023-04-19T11:32:45;7.55;;;2.92;;
21611;SDS011;47005;52.292;13.452;2023-04-19T11:35:12;3.33;;;2.13;;
21611;SDS011;47005;52.292;13.452;2023-04-19T11:37:38;3.83;;;2.30;;
21611;SDS011;47005;52.292;13.452;2023-04-19T11:40:09;5.55;;;2.53;;
21611;SDS011;47005;52.292;13.452;2023-04-19T11:42:39;9.07;;;2.92;;
21611;SDS011;47005;52.292;13.452;2023-04-19T11:45:05;5.90;;;3.05;;
21611;SDS011;47005;52.292;13.452;2023-04-19T11:47:31;7.20;;;3.08;;
21611;SDS011;47005;52.292;13.452;2023-04-19T11:50:28;8.50;;;3.15;;
21611;SDS011;47005;52.292;13.452;2023-04-19T11:53:09;6.00;;;3.17;;
21611;SDS011;47005;52.292;13.452;2023-04-19T11:55:38;5.95;;;2.97;;
21611;SDS011;47005;52.292;13.452;2023-04-19T11:58:06;6.95;;;2.85;;
21611;SDS011;47005;52.292;13.452;2023-04-19T12:00:35;5.53;;;2.78;;
21611;SDS011;47005;52.292;13.452;2023-04-19T12:03:00;4.40;;;2.45;;
21611;SDS011;47005;52.292;13.452;2023-04-19T12:05:27;9.48;;;3.33;;
21611;SDS011;47005;52.292;13.452;2023-04-19T12:08:03;8.82;;;2.65;;
21611;SDS011;47005;52.292;13.452;2023-04-19T12:10:32;5.53;;;2.60;;
21611;SDS011;47005;52.292;13.452;2023-04-19T12:12:58;6.72;;;2.63;;
21611;SDS011;47005;52.292;13.452;2023-04-19T12:15:45;5.00;;;2.78;;
21611;SDS011;47005;52.292;13.452;2023-04-19T12:18:10;6.20;;;2.60;;
21611;SDS011;47005;52.292;13.452;2023-04-19T12:20:37;5.13;;;2.67;;
21611;SDS011;47005;52.292;13.452;2023-04-19T12:23:07;5.32;;;2.55;;
21611;SDS011;47005;52.292;13.452;2023-04-19T12:25:35;6.63;;;2.95;;
21611;SDS011;47005;52.292;13.452;2023-04-19T12:28:02;7.93;;;3.72;;
21611;SDS011;47005;52.292;13.452;2023-04-19T12:30:28;7.65;;;3.20;;
21611;SDS011;47005;52.292;13.452;2023-04-19T12:32:54;8.18;;;2.60;;
21611;SDS011;47005;52.292;13.452;2023-04-19T12:35:24;5.82;;;2.90;;
21611;SDS011;47005;52.292;13.452;2023-04-19T12:37:51;4.97;;;2.58;;
21611;SDS011;47005;52.292;13.452;2023-04-19T12:40:18;7.13;;;2.95;;
21611;SDS011;47005;52.292;13.452;2023-04-19T12:42:43;4.28;;;2.75;;
21611;SDS011;47005;52.292;13.452;2023-04-19T12:45:09;10.02;;;3.17;;
21611;SDS011;47005;52.292;13.452;2023-04-19T12:47:36;6.97;;;2.78;;
21611;SDS011;47005;52.292;13.452;2023-04-19T12:50:02;6.10;;;3.03;;
21611;SDS011;47005;52.292;13.452;2023-04-19T12:52:28;7.00;;;2.85;;
21611;SDS011;47005;52.292;13.452;2023-04-19T12:54:53;4.22;;;2.40;;
21611;SDS011;47005;52.292;13.452;2023-04-19T12:57:19;5.30;;;2.15;;
21611;SDS011;47005;52.292;13.452;2023-04-19T12:59:45;3.78;;;2.30;;
21611;SDS011;47005;52.292;13.452;2023-04-19T13:02:10;6.22;;;2.70;;
21611;SDS011;47005;52.292;13.452;2023-04-19T13:04:36;6.15;;;2.38;;
21611;SDS011;47005;52.292;13.452;2023-04-19T13:07:01;6.55;;;2.50;;
21611;SDS011;47005;52.292;13.452;2023-04-19T13:09:27;5.03;;;2.95;;
21611;SDS011;47005;52.292;13.452;2023-04-19T13:11:53;3.78;;;1.98;;
21611;SDS011;47005;52.292;13.452;2023-04-19T13:14:19;6.05;;;3.00;;
21611;SDS011;47005;52.292;13.452;2023-04-19T13:16:45;4.90;;;2.38;;
21611;SDS011;47005;52.292;13.452;2023-04-19T13:19:10;14.75;;;3.00;;
21611;SDS011;47005;52.292;13.452;2023-04-19T13:21:36;5.45;;;2.95;;
21611;SDS011;47005;52.292;13.452;2023-04-19T13:24:01;7.22;;;2.72;;
21611;SDS011;47005;52.292;13.452;2023-04-19T13:26:27;6.88;;;2.65;;
21611;SDS011;47005;52.292;13.452;2023-04-19T13:28:53;10.45;;;3.30;;
21611;SDS011;47005;52.292;13.452;2023-04-19T13:31:18;4.38;;;2.40;;
21611;SDS011;47005;52.292;13.452;2023-04-19T13:33:44;5.32;;;2.55;;
21611;SDS011;47005;52.292;13.452;2023-04-19T13:36:10;4.05;;;2.25;;
21611;SDS011;47005;52.292;13.452;2023-04-19T13:38:36;4.47;;;2.55;;
21611;SDS011;47005;52.292;13.452;2023-04-19T13:41:01;6.03;;;2.70;;
21611;SDS011;47005;52.292;13.452;2023-04-19T13:43:28;7.32;;;3.33;;
21611;SDS011;47005;52.292;13.452;2023-04-19T13:45:53;4.45;;;3.03;;
21611;SDS011;47005;52.292;13.452;2023-04-19T13:48:19;5.70;;;2.77;;
21611;SDS011;47005;52.292;13.452;2023-04-19T13:50:45;11.13;;;3.55;;
21611;SDS011;47005;52.292;13.452;2023-04-19T13:53:10;6.00;;;3.00;;
21611;SDS011;47005;52.292;13.452;2023-04-19T13:55:36;4.40;;;2.77;;
21611;SDS011;47005;52.292;13.452;2023-04-19T13:58:02;6.77;;;3.20;;
21611;SDS011;47005;52.292;13.452;2023-04-19T14:00:28;11.00;;;3.40;;
21611;SDS011;47005;52.292;13.452;2023-04-19T14:02:53;6.03;;;3.07;;
21611;SDS011;47005;52.292;13.452;2023-04-19T14:05:20;7.37;;;3.27;;
21611;SDS011;47005;52.292;13.452;2023-04-19T14:07:46;8.03;;;3.00;;
21611;SDS011;47005;52.292;13.452;2023-04-19T14:10:12;5.50;;;2.60;;
21611;SDS011;47005;52.292;13.452;2023-04-19T14:12:38;8.07;;;3.30;;
21611;SDS011;47005;52.292;13.452;2023-04-19T14:15:03;9.93;;;3.47;;
21611;SDS011;47005;52.292;13.452;2023-04-19T14:17:29;5.93;;;3.07;;
21611;SDS011;47005;52.292;13.452;2023-04-19T14:19:58;8.13;;;3.17;;
21611;SDS011;47005;52.292;13.452;2023-04-19T14:22:24;5.23;;;2.60;;
21611;SDS011;47005;52.292;13.452;2023-04-19T14:24:49;6.83;;;2.90;;
21611;SDS011;47005;52.292;13.452;2023-04-19T14:27:15;4.23;;;1.90;;
21611;SDS011;47005;52.292;13.452;2023-04-19T14:29:41;6.73;;;2.87;;
21611;SDS011;47005;52.292;13.452;2023-04-19T14:32:06;8.03;;;2.43;;
21611;SDS011;47005;52.292;13.452;2023-04-19T14:34:32;8.00;;;2.77;;
21611;SDS011;47005;52.292;13.452;2023-04-19T14:36:58;7.00;;;3.47;;
21611;SDS011;47005;52.292;13.452;2023-04-19T14:39:23;6.00;;;2.63;;
21611;SDS011;47005;52.292;13.452;2023-04-19T14:41:49;4.87;;;3.27;;
21611;SDS011;47005;52.292;13.452;2023-04-19T14:44:15;9.60;;;3.03;;
21611;SDS011;47005;52.292;13.452;2023-04-19T14:46:40;4.90;;;2.90;;
21611;SDS011;47005;52.292;13.452;2023-04-19T14:49:06;4.90;;;2.87;;
21611;SDS011;47005;52.292;13.452;2023-04-19T14:51:32;6.93;;;3.00;;
21611;SDS011;47005;52.292;13.452;2023-04-19T14:53:58;6.73;;;3.10;;
21611;SDS011;47005;52.292;13.452;2023-04-19T14:56:23;6.77;;;3.53;;
21611;SDS011;47005;52.292;13.452;2023-04-19T14:58:51;5.67;;;2.50;;